Terminal Aerodrome Forecast
Issued by NWS

Home | Current Version | Previous Version | Graphics & Text | Print | Product List | Glossary On
Versions: 1 2 3 4 5 6 7 8 9 10 11 12 13 14 15 16 17 18 19 20 21
000
FTUS43 KBIS 182322
TAFDIK
TAF
KDIK 182322Z 1900/1924 13009KT P6SM VCTS BKN080CB BKN150
     FM190300 13009KT P6SM SCT080 SCT150
     FM191500 16008KT P6SM VCTS SCT100CB BKN200
     FM192100 08010KT P6SM FEW070 SCT200=

USA.gov is the U.S. government's official web portal to all federal, state and local government web resources and services.